KTUP/TUP METAR and TAF weather

Enter ICAO airport designator
Station Type Date Time Source
KTUP METAR 2020/09/18 15:53 UTC NOAA

KTUP 181553Z 02015KT 10SM CLR 24/16 A3007 RMK AO2 SLP178 T02390161


Station Type Date Time Source
KTUP Decoded METAR 2020/09/18 15:53 UTC NOAA

TUPELO REGIONAL AIRPORT, MS, United States (KTUP) 34-16N 88-46W 105M
Sep 18, 2020 - 11:53 AM EDT / 2020.09.18 1553 UTC
Wind: from the NNE (020 degrees) at 17 MPH (15 KT):0
Visibility: 10 mile(s):0
Sky conditions: clear
Temperature: 75.0 F (23.9 C)
Dew Point: 61.0 F (16.1 C)
Relative Humidity: 61%
Pressure (altimeter): 30.07 in. Hg (1018 hPa)
ob: KTUP 181553Z 02015KT 10SM CLR 24/16 A3007 RMK AO2 SLP178 T02390161
cycle: 16

Station Type Date Time Source
KTUP TAF 2020/09/18 15:18 UTC NOAA

TAF
AMD KTUP 181516Z 1815/1912 02012KT P6SM BKN250
FM181700 03014G20KT P6SM FEW050 SCT250
FM190100 03012KT P6SM FEW250
FM190600 03008KT P6SM FEW250

Example: see airport list